Time;durP1;ratioP1;P1;durP2;ratioP2;P2;SDS_P1;SDS_P2;PMS_P1;PMS_P2;Temp;Humidity;BMP_temperature;BMP_pressure;BME280_temperature;BME280_humidity;BME280_pressure;Samples;Min_cycle;Max_cycle;Signal;HPM_P1;HPM_P2
2023/01/11 00:00:36;;;;;;;;;;;7.60;99.90;;;;;;5078545;28;1033;-74
2023/01/11 00:03:02;;;;;;;;;;;7.70;99.90;;;;;;5078449;28;1233;-74
2023/01/11 00:05:28;;;;;;;;;;;7.70;99.90;;;;;;5077890;28;1082;-74
2023/01/11 00:07:53;;;;;;;;;;;7.70;99.90;;;;;;5059463;28;1107;-74
2023/01/11 00:10:19;;;;;;;;;;;7.60;99.90;;;;;;5060655;28;1029;-74
2023/01/11 00:12:45;;;;;;;;;;;8.00;99.90;;;;;;5059276;28;1930;-74
2023/01/11 00:15:11;;;;;;;;;;;7.70;99.90;;;;;;5078406;28;1036;-74
2023/01/11 00:17:36;;;;;;;;;;;7.70;99.90;;;;;;5059422;28;1029;-74
2023/01/11 00:20:02;;;;;;;;;;;7.80;99.90;;;;;;5078081;28;1092;-74
2023/01/11 00:22:28;;;;;;;;;;;7.90;99.90;;;;;;5079307;28;1454;-74
2023/01/11 00:24:54;;;;;;;;;;;7.80;99.90;;;;;;5076689;28;1071;-74
2023/01/11 00:27:19;;;;;;;;;;;7.90;99.90;;;;;;5060249;28;983;-74
2023/01/11 00:29:45;;;;;;;;;;;7.90;99.90;;;;;;5078057;28;956;-74
2023/01/11 00:32:11;;;;;;;;;;;7.90;99.90;;;;;;5076969;28;2001;-74
2023/01/11 00:34:37;;;;;;;;;;;8.00;99.90;;;;;;5077994;28;1118;-74
2023/01/11 00:37:03;;;;;;;;;;;8.00;99.90;;;;;;5059664;28;1067;-74
2023/01/11 00:39:29;;;;;;;;;;;8.00;99.90;;;;;;5058513;28;1001;-74
2023/01/11 00:50:07;;;;;;;;;;;8.10;99.90;;;;;;5060096;28;1037;-74
2023/01/11 00:52:32;;;;;;;;;;;8.10;99.90;;;;;;5077354;28;1968;-74
2023/01/11 00:54:58;;;;;;;;;;;8.20;99.90;;;;;;5076756;28;1133;-74
2023/01/11 00:57:24;;;;;;;;;;;8.20;99.90;;;;;;5077798;28;1289;-74
2023/01/11 00:59:49;;;;;;;;;;;8.20;99.90;;;;;;5058534;28;1158;-74
2023/01/11 01:02:15;;;;;;;;;;;8.20;99.90;;;;;;5059587;28;996;-74
2023/01/11 01:04:41;;;;;;;;;;;8.20;99.90;;;;;;5080389;28;1325;-74
2023/01/11 01:07:07;;;;;;;;;;;8.20;99.90;;;;;;5080810;28;1009;-74
2023/01/11 01:09:32;;;;;;;;;;;8.30;99.90;;;;;;5062566;28;1101;-74
2023/01/11 01:11:58;;;;;;;;;;;8.20;99.90;;;;;;5063201;28;1918;-74
2023/01/11 01:14:25;;;;;;;;;;;8.30;99.90;;;;;;5081109;28;1063;-74
2023/01/11 01:16:51;;;;;;;;;;;8.30;99.90;;;;;;5080740;28;1101;-74
2023/01/11 01:19:17;;;;;;;;;;;8.30;99.90;;;;;;5081424;28;957;-74
2023/01/11 01:21:43;;;;;;;;;;;8.30;99.90;;;;;;5081126;28;1144;-74
2023/01/11 01:24:09;;;;;;;;;;;8.30;99.90;;;;;;5081140;28;1103;-74
2023/01/11 01:26:34;;;;;;;;;;;8.30;99.90;;;;;;5081101;28;1257;-74
2023/01/11 01:29:00;;;;;;;;;;;8.30;99.90;;;;;;5080541;28;1036;-74
2023/01/11 01:31:26;;;;;;;;;;;8.40;99.90;;;;;;5080744;28;1269;-74
2023/01/11 01:33:51;;;;;;;;;;;8.40;99.90;;;;;;5063011;28;1930;-75
2023/01/11 01:36:17;;;;;;;;;;;8.40;99.90;;;;;;5080251;28;1147;-75
2023/01/11 01:38:42;;;;;;;;;;;8.40;99.90;;;;;;5081513;28;1003;-74
2023/01/11 01:41:09;;;;;;;;;;;8.40;99.90;;;;;;5081236;28;1187;-75
2023/01/11 01:43:44;;;;;;;;;;;8.40;99.90;;;;;;5062005;28;1020;-74
2023/01/11 01:46:09;;;;;;;;;;;8.50;99.90;;;;;;5062589;28;1111;-74
2023/01/11 01:48:36;;;;;;;;;;;8.50;99.90;;;;;;5080887;28;1028;-75
2023/01/11 01:51:02;;;;;;;;;;;8.50;99.90;;;;;;5080694;28;1046;-75
2023/01/11 01:53:30;;;;;;;;;;;8.60;99.90;;;;;;5079792;28;1930;-74
2023/01/11 01:55:59;;;;;;;;;;;8.60;99.90;;;;;;5080173;28;1135;-75
2023/01/11 01:58:29;;;;;;;;;;;8.60;99.90;;;;;;5062145;28;1163;-75
2023/01/11 02:00:54;;;;;;;;;;;8.60;99.90;;;;;;5080468;28;1044;-74
2023/01/11 02:03:23;;;;;;;;;;;8.60;99.90;;;;;;5061620;28;1176;-75
2023/01/11 02:05:50;;;;;;;;;;;8.60;99.90;;;;;;5080421;28;1024;-75
2023/01/11 02:08:19;;;;;;;;;;;8.70;99.90;;;;;;5080063;28;1087;-75
2023/01/11 02:10:45;;;;;;;;;;;8.70;99.90;;;;;;5079203;28;1032;-74
2023/01/11 02:13:13;;;;;;;;;;;8.70;99.90;;;;;;5080362;28;1979;-75
2023/01/11 02:15:38;;;;;;;;;;;8.70;99.90;;;;;;5079771;28;1017;-75
2023/01/11 02:18:08;;;;;;;;;;;8.70;99.90;;;;;;5079836;28;978;-74
2023/01/11 02:20:34;;;;;;;;;;;8.80;99.90;;;;;;5061512;28;1035;-75
2023/01/11 02:23:06;;;;;;;;;;;8.80;99.90;;;;;;5080340;28;1452;-74
2023/01/11 02:25:52;;;;;;;;;;;8.80;99.90;;;;;;5078805;28;1016;-74
2023/01/11 02:28:19;;;;;;;;;;;8.80;99.90;;;;;;5062011;28;1084;-75
2023/01/11 02:30:54;;;;;;;;;;;8.80;99.90;;;;;;5061325;28;1068;-75
2023/01/11 02:33:35;;;;;;;;;;;8.80;99.90;;;;;;5061459;28;1910;-74
2023/01/11 02:36:07;;;;;;;;;;;8.80;99.90;;;;;;5080046;28;1028;-74
2023/01/11 02:38:32;;;;;;;;;;;8.90;99.90;;;;;;5078531;28;1056;-75
2023/01/11 02:41:17;;;;;;;;;;;8.80;99.90;;;;;;5079734;28;1102;-74
2023/01/11 02:46:34;;;;;;;;;;;8.90;99.90;;;;;;5078253;28;1036;-74
2023/01/11 02:49:18;;;;;;;;;;;9.00;99.90;;;;;;5079418;28;1036;-74
2023/01/11 02:51:45;;;;;;;;;;;9.70;99.90;;;;;;5079915;28;1914;-74
2023/01/11 02:54:13;;;;;;;;;;;9.00;99.90;;;;;;5077839;28;1149;-74
2023/01/11 02:56:40;;;;;;;;;;;9.10;99.90;;;;;;5061113;28;1322;-74
2023/01/11 02:59:16;;;;;;;;;;;9.10;99.90;;;;;;5079332;28;980;-74
2023/01/11 03:01:45;;;;;;;;;;;9.10;99.90;;;;;;5060288;28;1020;-74
2023/01/11 03:04:21;;;;;;;;;;;9.10;99.90;;;;;;5078560;28;1292;-74
2023/01/11 03:06:47;;;;;;;;;;;9.10;99.90;;;;;;5078863;28;1047;-74
2023/01/11 03:09:25;;;;;;;;;;;9.10;99.90;;;;;;5079690;28;969;-74
2023/01/11 03:15:02;;;;;;;;;;;9.10;99.90;;;;;;5078980;28;1017;-74
2023/01/11 03:17:28;;;;;;;;;;;9.20;99.90;;;;;;5079383;28;1096;-74
2023/01/11 03:19:58;;;;;;;;;;;9.20;99.90;;;;;;5079165;28;928;-74
2023/01/11 03:22:30;;;;;;;;;;;9.10;99.90;;;;;;5078856;28;1259;-74
2023/01/11 03:24:59;;;;;;;;;;;9.20;99.90;;;;;;5079117;28;1033;-74
2023/01/11 03:27:36;;;;;;;;;;;9.20;99.90;;;;;;5077921;28;1075;-74
2023/01/11 03:30:02;;;;;;;;;;;9.30;99.90;;;;;;5077866;28;1152;-74
2023/01/11 03:32:29;;;;;;;;;;;9.30;99.90;;;;;;5079199;28;1972;-74
2023/01/11 03:34:56;;;;;;;;;;;9.30;99.90;;;;;;5078190;28;1201;-74
2023/01/11 03:37:21;;;;;;;;;;;9.30;99.90;;;;;;5078620;28;1055;-74
2023/01/11 03:40:06;;;;;;;;;;;9.30;99.90;;;;;;5078576;28;1028;-74
2023/01/11 03:42:32;;;;;;;;;;;9.40;99.90;;;;;;5060083;28;1084;-74
2023/01/11 03:44:59;;;;;;;;;;;9.50;99.90;;;;;;5078203;28;1079;-75
2023/01/11 03:47:27;;;;;;;;;;;9.50;99.90;;;;;;5078094;28;1055;-74
2023/01/11 03:50:03;;;;;;;;;;;9.50;99.90;;;;;;5059974;28;964;-74
2023/01/11 03:52:32;;;;;;;;;;;9.50;99.90;;;;;;5078180;28;1906;-75
2023/01/11 03:54:59;;;;;;;;;;;9.50;99.90;;;;;;5060929;28;1387;-75
2023/01/11 03:57:26;;;;;;;;;;;9.50;99.90;;;;;;5059019;28;1244;-75
2023/01/11 03:59:52;;;;;;;;;;;9.50;99.90;;;;;;5077873;28;1064;-75
2023/01/11 04:02:19;;;;;;;;;;;9.50;99.90;;;;;;5043368;28;1005;-75
2023/01/11 04:04:45;;;;;;;;;;;9.50;99.90;;;;;;5060296;28;1321;-75
2023/01/11 04:07:11;;;;;;;;;;;9.50;99.90;;;;;;5060431;28;989;-75
2023/01/11 04:09:36;;;;;;;;;;;9.60;99.90;;;;;;5078374;28;969;-75
2023/01/11 04:12:02;;;;;;;;;;;9.60;99.90;;;;;;5077695;28;1977;-75
2023/01/11 04:14:28;;;;;;;;;;;9.50;99.90;;;;;;5077253;28;1154;-75
2023/01/11 04:16:53;;;;;;;;;;;9.60;99.90;;;;;;5077755;28;1167;-75
2023/01/11 04:19:19;;;;;;;;;;;9.50;99.90;;;;;;5077988;28;1048;-75
2023/01/11 04:21:44;;;;;;;;;;;9.50;99.90;;;;;;5060228;28;1444;-75
2023/01/11 04:24:12;;;;;;;;;;;9.50;99.90;;;;;;5077108;28;1024;-75
2023/01/11 04:26:38;;;;;;;;;;;9.60;99.90;;;;;;5077974;28;1065;-75
2023/01/11 04:29:04;;;;;;;;;;;9.60;99.90;;;;;;5060026;28;1166;-76
2023/01/11 04:31:30;;;;;;;;;;;9.60;99.90;;;;;;5077371;28;1041;-76
2023/01/11 04:33:55;;;;;;;;;;;9.60;99.90;;;;;;5078802;28;1981;-76
2023/01/11 04:36:21;;;;;;;;;;;9.60;99.90;;;;;;5077856;28;1087;-76
2023/01/11 04:38:47;;;;;;;;;;;9.60;99.90;;;;;;5079018;28;1016;-76
2023/01/11 04:43:56;;;;;;;;;;;9.60;99.90;;;;;;5082206;28;1009;-75
2023/01/11 04:46:23;;;;;;;;;;;9.60;99.90;;;;;;5063013;28;1013;-75
2023/01/11 04:48:48;;;;;;;;;;;9.60;99.90;;;;;;5082280;28;996;-76
2023/01/11 04:51:14;;;;;;;;;;;9.70;99.90;;;;;;5081079;28;984;-76
2023/01/11 04:53:40;;;;;;;;;;;9.70;99.90;;;;;;5081120;28;1979;-75
2023/01/11 04:56:05;;;;;;;;;;;9.90;99.90;;;;;;5081841;28;1088;-75
2023/01/11 04:58:33;;;;;;;;;;;10.00;99.90;;;;;;5081333;28;990;-75
2023/01/11 05:00:59;;;;;;;;;;;10.10;99.90;;;;;;5080821;28;1005;-76
2023/01/11 05:03:25;;;;;;;;;;;9.90;99.90;;;;;;5081711;28;1214;-76
2023/01/11 05:05:55;;;;;;;;;;;9.70;99.90;;;;;;5081685;28;1002;-76
2023/01/11 05:08:21;;;;;;;;;;;9.50;99.90;;;;;;5062481;28;1100;-76
2023/01/11 05:10:53;;;;;;;;;;;9.40;99.90;;;;;;5063153;28;1041;-76
2023/01/11 05:13:19;;;;;;;;;;;9.30;99.90;;;;;;5080493;28;1969;-76
2023/01/11 05:15:45;;;;;;;;;;;9.10;99.90;;;;;;5080897;28;1207;-76
2023/01/11 05:18:10;;;;;;;;;;;9.00;99.90;;;;;;5081807;28;1005;-76
2023/01/11 05:20:36;;;;;;;;;;;8.90;99.90;;;;;;5061770;28;1024;-76
2023/01/11 05:23:01;;;;;;;;;;;8.90;99.90;;;;;;5081849;28;1441;-76
2023/01/11 05:25:27;;;;;;;;;;;8.80;99.90;;;;;;5080832;28;1125;-75
2023/01/11 05:27:53;;;;;;;;;;;8.80;99.90;;;;;;5080198;28;1159;-75
2023/01/11 05:30:18;;;;;;;;;;;8.80;99.90;;;;;;5062579;28;1040;-75
2023/01/11 05:32:44;;;;;;;;;;;8.80;99.90;;;;;;5081702;28;1913;-75
2023/01/11 05:35:10;;;;;;;;;;;8.90;99.90;;;;;;5079851;28;995;-75
2023/01/11 05:37:36;;;;;;;;;;;8.90;99.90;;;;;;5080892;28;1009;-74
2023/01/11 05:40:03;;;;;;;;;;;8.90;99.90;;;;;;5081345;28;1200;-74
2023/01/11 05:42:28;;;;;;;;;;;8.90;99.90;;;;;;5044601;28;1033;-74
2023/01/11 05:47:38;;;;;;;;;;;8.90;99.90;;;;;;5080988;28;1172;-74
2023/01/11 05:50:04;;;;;;;;;;;8.90;99.90;;;;;;5061057;28;914;-74
2023/01/11 05:52:30;;;;;;;;;;;8.90;99.90;;;;;;5061674;28;2014;-75
2023/01/11 05:54:57;;;;;;;;;;;8.90;99.90;;;;;;5081059;28;1000;-75
2023/01/11 05:57:22;;;;;;;;;;;8.90;99.90;;;;;;5079245;28;1100;-74
2023/01/11 05:59:48;;;;;;;;;;;8.90;99.90;;;;;;5080333;28;1112;-74
2023/01/11 06:02:14;;;;;;;;;;;9.00;99.90;;;;;;5061312;28;1065;-75
2023/01/11 06:04:39;;;;;;;;;;;9.00;99.90;;;;;;5080373;28;1356;-75
2023/01/11 06:07:05;;;;;;;;;;;9.00;99.90;;;;;;5062022;28;1037;-75
2023/01/11 06:09:31;;;;;;;;;;;9.00;99.90;;;;;;5079821;28;1101;-75
2023/01/11 06:11:57;;;;;;;;;;;9.00;99.90;;;;;;5080239;28;2332;-75
2023/01/11 06:14:22;;;;;;;;;;;9.00;99.90;;;;;;5079851;28;895;-75
2023/01/11 06:16:48;;;;;;;;;;;9.00;99.90;;;;;;5044423;28;1423;-75
2023/01/11 06:19:13;;;;;;;;;;;9.00;99.90;;;;;;5079919;28;1011;-75
2023/01/11 06:21:39;;;;;;;;;;;9.00;99.90;;;;;;5080121;28;1271;-75
2023/01/11 06:24:05;;;;;;;;;;;9.00;99.90;;;;;;5079920;28;996;-74
2023/01/11 06:26:31;;;;;;;;;;;9.00;99.90;;;;;;5061740;28;1008;-75
2023/01/11 06:28:56;;;;;;;;;;;9.10;99.90;;;;;;5079705;28;1320;-75
2023/01/11 06:31:22;;;;;;;;;;;9.10;99.90;;;;;;5079126;28;1092;-75
2023/01/11 06:33:48;;;;;;;;;;;9.00;99.90;;;;;;5061967;28;1930;-75
2023/01/11 06:36:14;;;;;;;;;;;9.00;99.90;;;;;;5061551;28;1055;-75
2023/01/11 06:38:40;;;;;;;;;;;9.00;99.90;;;;;;5079409;28;1000;-75
2023/01/11 06:41:08;;;;;;;;;;;9.00;99.90;;;;;;5079588;28;1099;-74
2023/01/11 06:43:34;;;;;;;;;;;9.10;99.90;;;;;;5079429;28;1005;-74
2023/01/11 06:46:00;;;;;;;;;;;9.10;99.90;;;;;;5078475;28;1075;-74
2023/01/11 06:48:26;;;;;;;;;;;9.10;99.90;;;;;;5061506;28;1033;-73
2023/01/11 06:50:53;;;;;;;;;;;9.10;99.90;;;;;;5080250;28;1015;-73
2023/01/11 06:53:18;;;;;;;;;;;9.10;99.90;;;;;;5079522;28;1913;-74
2023/01/11 06:55:47;;;;;;;;;;;9.10;99.90;;;;;;5081249;28;1311;-73
2023/01/11 06:58:13;;;;;;;;;;;9.10;99.90;;;;;;5078831;28;1020;-73
2023/01/11 07:00:39;;;;;;;;;;;9.20;99.90;;;;;;5079070;28;976;-74
2023/01/11 07:03:05;;;;;;;;;;;9.10;99.90;;;;;;5078784;28;1122;-74
2023/01/11 07:05:31;;;;;;;;;;;9.20;99.90;;;;;;5078583;28;1079;-74
2023/01/11 07:07:57;;;;;;;;;;;9.20;99.90;;;;;;5079188;28;1052;-74
2023/01/11 07:10:22;;;;;;;;;;;9.20;99.90;;;;;;5044650;28;1132;-74
2023/01/11 07:12:48;;;;;;;;;;;9.10;99.90;;;;;;5059723;28;1910;-73
2023/01/11 07:15:13;;;;;;;;;;;9.10;99.90;;;;;;5079090;28;1149;-73
2023/01/11 07:17:39;;;;;;;;;;;9.10;99.90;;;;;;5079234;28;1040;-73
2023/01/11 07:20:05;;;;;;;;;;;9.00;99.90;;;;;;5078110;28;1040;-73
2023/01/11 07:22:32;;;;;;;;;;;9.00;99.90;;;;;;5079518;28;1485;-73
2023/01/11 07:24:58;;;;;;;;;;;9.00;99.90;;;;;;5078976;28;1064;-74
2023/01/11 07:27:24;;;;;;;;;;;9.00;99.90;;;;;;5060600;28;1091;-73
2023/01/11 07:29:51;;;;;;;;;;;9.00;99.90;;;;;;5078603;28;1007;-73
2023/01/11 07:32:17;;;;;;;;;;;9.00;99.90;;;;;;5079420;28;1910;-73
2023/01/11 07:34:42;;;;;;;;;;;9.00;99.90;;;;;;5078294;28;992;-74
2023/01/11 07:37:08;;;;;;;;;;;9.00;99.90;;;;;;5060980;28;1108;-74
2023/01/11 07:39:34;;;;;;;;;;;8.90;99.90;;;;;;5077923;28;1152;-74
2023/01/11 07:44:44;;;;;;;;;;;8.80;99.90;;;;;;5078442;28;1005;-74
2023/01/11 07:47:09;;;;;;;;;;;10.00;99.90;;;;;;5078450;28;1141;-73
2023/01/11 07:49:35;;;;;;;;;;;8.90;99.90;;;;;;5077489;28;1028;-74
2023/01/11 07:52:01;;;;;;;;;;;9.00;99.90;;;;;;5079043;28;1980;-73
2023/01/11 07:54:26;;;;;;;;;;;9.00;99.90;;;;;;5080689;28;1270;-74
2023/01/11 07:56:52;;;;;;;;;;;8.90;99.90;;;;;;5076853;28;1420;-73
2023/01/11 07:59:18;;;;;;;;;;;8.90;99.90;;;;;;5060579;28;1012;-73
2023/01/11 08:01:43;;;;;;;;;;;8.90;99.90;;;;;;5078067;28;965;-73
2023/01/11 08:04:11;;;;;;;;;;;8.90;99.90;;;;;;5078401;28;1298;-74
2023/01/11 08:06:37;;;;;;;;;;;8.90;99.90;;;;;;5078111;28;1034;-74
2023/01/11 08:09:03;;;;;;;;;;;8.90;99.90;;;;;;5043025;28;1109;-73
2023/01/11 08:14:39;;;;;;;;;;;8.90;99.90;;;;;;5077018;28;1160;-73
2023/01/11 08:17:05;;;;;;;;;;;9.00;99.90;;;;;;5060309;28;1088;-73
2023/01/11 08:19:31;;;;;;;;;;;9.00;99.90;;;;;;5078017;28;982;-73
2023/01/11 08:21:56;;;;;;;;;;;9.00;99.90;;;;;;5079053;28;1309;-73
2023/01/11 08:24:22;;;;;;;;;;;9.00;99.90;;;;;;5059728;28;965;-73
2023/01/11 08:26:48;;;;;;;;;;;9.00;99.90;;;;;;5059763;28;969;-73
2023/01/11 08:29:14;;;;;;;;;;;8.90;99.90;;;;;;5060047;28;1004;-72
2023/01/11 08:31:42;;;;;;;;;;;8.90;99.90;;;;;;5076589;28;1050;-72
2023/01/11 08:34:07;;;;;;;;;;;8.90;99.90;;;;;;5077696;28;1971;-72
2023/01/11 08:36:33;;;;;;;;;;;8.90;99.90;;;;;;5078615;28;1034;-72
2023/01/11 08:38:59;;;;;;;;;;;8.80;99.90;;;;;;5077932;28;1077;-72
2023/01/11 08:41:24;;;;;;;;;;;8.70;99.90;;;;;;5060193;28;1133;-72
2023/01/11 08:43:50;;;;;;;;;;;8.70;99.90;;;;;;5078176;28;1179;-72
2023/01/11 08:46:17;;;;;;;;;;;8.60;99.90;;;;;;5076958;28;1075;-72
2023/01/11 08:48:43;;;;;;;;;;;8.70;99.90;;;;;;5060357;28;1126;-72
2023/01/11 08:51:08;;;;;;;;;;;8.70;99.90;;;;;;5078354;28;978;-72
2023/01/11 08:53:34;;;;;;;;;;;8.80;99.90;;;;;;5078501;28;2324;-72
2023/01/11 08:56:00;;;;;;;;;;;8.70;99.90;;;;;;5077218;28;1116;-73
2023/01/11 08:58:25;;;;;;;;;;;8.70;99.90;;;;;;5076655;28;1114;-73
2023/01/11 09:00:51;;;;;;;;;;;8.70;99.90;;;;;;5077855;28;1023;-73
2023/01/11 09:03:17;;;;;;;;;;;8.70;99.90;;;;;;5077046;28;1071;-73
2023/01/11 09:05:43;;;;;;;;;;;8.70;99.90;;;;;;5078484;28;1131;-73
2023/01/11 09:08:09;;;;;;;;;;;8.80;99.90;;;;;;5077728;28;1101;-73
2023/01/11 09:10:35;;;;;;;;;;;8.80;99.90;;;;;;5081846;28;1306;-73
2023/01/11 09:13:01;;;;;;;;;;;8.80;99.90;;;;;;5078815;28;2032;-73
2023/01/11 09:15:26;;;;;;;;;;;8.80;99.90;;;;;;5077586;28;1073;-73
2023/01/11 09:17:52;;;;;;;;;;;8.80;99.90;;;;;;5077128;28;1040;-73
2023/01/11 09:20:19;;;;;;;;;;;8.80;99.90;;;;;;5077041;28;969;-73
2023/01/11 09:22:45;;;;;;;;;;;8.70;99.90;;;;;;5078314;28;1464;-73
2023/01/11 09:25:11;;;;;;;;;;;8.70;99.90;;;;;;5079453;28;999;-73
2023/01/11 09:27:37;;;;;;;;;;;8.60;99.90;;;;;;5081472;28;1278;-73
2023/01/11 09:30:03;;;;;;;;;;;8.60;99.90;;;;;;5082567;28;1152;-73
2023/01/11 09:32:28;;;;;;;;;;;8.60;99.90;;;;;;5062545;28;1963;-73
2023/01/11 09:34:56;;;;;;;;;;;8.50;99.90;;;;;;5080580;28;1048;-73
2023/01/11 09:37:23;;;;;;;;;;;8.50;99.90;;;;;;5081112;28;1013;-73
2023/01/11 09:39:50;;;;;;;;;;;8.60;99.90;;;;;;5081098;28;981;-73
2023/01/11 09:42:30;;;;;;;;;;;8.70;99.90;;;;;;5081440;28;1310;-73
2023/01/11 09:45:01;;;;;;;;;;;8.80;99.90;;;;;;5083132;28;1119;-73
2023/01/11 09:47:32;;;;;;;;;;;8.90;99.90;;;;;;5080734;28;1036;-73
2023/01/11 09:50:01;;;;;;;;;;;8.80;99.90;;;;;;5080965;28;1155;-73
2023/01/11 09:52:31;;;;;;;;;;;8.90;99.90;;;;;;5080175;28;1902;-73
2023/01/11 09:54:57;;;;;;;;;;;8.80;99.90;;;;;;5080398;28;1088;-73
2023/01/11 09:57:37;;;;;;;;;;;8.80;99.90;;;;;;5080127;28;2523;-73
2023/01/11 10:00:13;;;;;;;;;;;8.80;99.90;;;;;;5062294;28;2805;-72
2023/01/11 10:02:52;;;;;;;;;;;8.90;99.90;;;;;;5080598;28;2870;-73
2023/01/11 10:05:20;;;;;;;;;;;9.40;99.90;;;;;;5081144;28;2739;-73
2023/01/11 10:07:56;;;;;;;;;;;10.20;99.90;;;;;;5079886;28;1122;-73
2023/01/11 10:10:25;;;;;;;;;;;10.70;99.90;;;;;;5079260;28;1167;-73
2023/01/11 10:12:55;;;;;;;;;;;11.20;99.90;;;;;;5079925;28;1906;-73
2023/01/11 10:15:24;;;;;;;;;;;11.60;99.90;;;;;;5081432;28;1189;-74
2023/01/11 10:17:57;;;;;;;;;;;11.70;99.90;;;;;;5082808;28;2538;-73
2023/01/11 10:20:29;;;;;;;;;;;11.90;99.90;;;;;;5062667;28;1136;-74
2023/01/11 10:23:05;;;;;;;;;;;12.10;99.90;;;;;;5080641;28;1445;-74
2023/01/11 10:25:40;;;;;;;;;;;12.20;99.90;;;;;;5079986;28;1103;-74
2023/01/11 10:28:12;;;;;;;;;;;12.50;99.90;;;;;;5079925;28;1013;-73
2023/01/11 10:30:54;;;;;;;;;;;13.90;99.90;;;;;;5061766;28;1064;-74
2023/01/11 10:33:44;;;;;;;;;;;12.60;99.90;;;;;;5061836;28;1910;-74
2023/01/11 10:36:33;;;;;;;;;;;12.80;99.90;;;;;;5060758;28;1036;-73
2023/01/11 10:39:16;;;;;;;;;;;12.80;99.90;;;;;;5079277;28;1001;-74
2023/01/11 10:41:51;;;;;;;;;;;12.60;99.90;;;;;;5079889;28;1132;-73
2023/01/11 10:44:22;;;;;;;;;;;12.90;99.90;;;;;;5079529;28;1020;-73
2023/01/11 10:46:49;;;;;;;;;;;13.10;99.90;;;;;;5080231;28;1067;-74
2023/01/11 10:49:25;;;;;;;;;;;13.40;99.90;;;;;;5079401;28;1013;-73
2023/01/11 10:51:52;;;;;;;;;;;12.90;99.90;;;;;;5079164;28;1053;-73
2023/01/11 10:54:21;;;;;;;;;;;13.10;99.90;;;;;;5078864;28;1909;-74
2023/01/11 10:56:48;;;;;;;;;;;13.20;99.90;;;;;;5061196;28;1283;-73
2023/01/11 10:59:33;;;;;;;;;;;12.80;99.90;;;;;;5061054;28;1107;-73
2023/01/11 11:02:18;;;;;;;;;;;13.10;99.90;;;;;;5060618;28;1037;-73
2023/01/11 11:04:54;;;;;;;;;;;13.20;99.90;;;;;;5060833;28;1365;-73
2023/01/11 11:07:19;;;;;;;;;;;13.40;99.90;;;;;;5079888;28;1060;-74
2023/01/11 11:09:54;;;;;;;;;;;13.20;99.90;;;;;;5060434;28;1108;-73
2023/01/11 11:12:24;;;;;;;;;;;13.30;99.90;;;;;;5078764;28;1938;-74
2023/01/11 11:15:02;;;;;;;;;;;13.50;99.90;;;;;;5079144;28;1021;-73
2023/01/11 11:17:29;;;;;;;;;;;13.30;99.90;;;;;;5079519;28;1084;-74
2023/01/11 11:19:56;;;;;;;;;;;13.00;99.90;;;;;;5077640;28;1155;-74
2023/01/11 11:22:21;;;;;;;;;;;12.90;99.90;;;;;;5079565;28;1410;-74
2023/01/11 11:24:50;;;;;;;;;;;12.60;99.90;;;;;;5060791;28;2025;-74
2023/01/11 11:27:21;;;;;;;;;;;12.80;99.90;;;;;;5060065;28;1024;-74
2023/01/11 11:29:49;;;;;;;;;;;12.70;99.90;;;;;;5059850;28;1156;-74
2023/01/11 11:32:18;;;;;;;;;;;11.60;99.90;;;;;;5078844;28;1994;-74
2023/01/11 11:34:45;;;;;;;;;;;11.40;99.90;;;;;;5079309;28;1036;-74
2023/01/11 11:37:18;;;;;;;;;;;10.80;99.90;;;;;;5060421;28;965;-74
2023/01/11 11:39:46;;;;;;;;;;;10.70;99.90;;;;;;5078182;28;1087;-74
2023/01/11 11:42:20;;;;;;;;;;;10.40;99.90;;;;;;5078847;28;1038;-74
2023/01/11 11:45:12;;;;;;;;;;;10.70;99.90;;;;;;5060734;28;1064;-73
2023/01/11 11:47:38;;;;;;;;;;;11.30;99.90;;;;;;5059570;28;1096;-74
2023/01/11 11:50:25;;;;;;;;;;;11.30;99.90;;;;;;5078090;28;1087;-74
2023/01/11 11:52:54;;;;;;;;;;;11.10;99.90;;;;;;5060204;28;1914;-74
2023/01/11 11:55:23;;;;;;;;;;;10.80;99.90;;;;;;5077467;28;1084;-74
2023/01/11 11:57:48;;;;;;;;;;;10.70;99.90;;;;;;5078462;28;953;-74
2023/01/11 12:00:23;;;;;;;;;;;10.60;99.90;;;;;;5078260;28;965;-74
2023/01/11 12:02:52;;;;;;;;;;;10.40;99.90;;;;;;5078136;28;1148;-74
2023/01/11 12:05:18;;;;;;;;;;;10.10;99.90;;;;;;5060456;28;1052;-74
2023/01/11 12:07:46;;;;;;;;;;;9.90;99.90;;;;;;5078638;28;969;-73
2023/01/11 12:10:14;;;;;;;;;;;9.60;99.90;;;;;;5078109;28;1051;-75
2023/01/11 12:12:47;;;;;;;;;;;9.50;99.90;;;;;;5077795;28;1989;-74
2023/01/11 12:15:13;;;;;;;;;;;9.60;99.90;;;;;;5059903;28;1091;-75
2023/01/11 12:17:39;;;;;;;;;;;10.00;99.90;;;;;;5078450;28;984;-75
2023/01/11 12:20:23;;;;;;;;;;;9.80;99.90;;;;;;5061258;28;1037;-74
2023/01/11 12:22:50;;;;;;;;;;;9.70;99.90;;;;;;5059477;28;1207;-74
2023/01/11 12:25:15;;;;;;;;;;;9.80;99.90;;;;;;5079085;28;1018;-74
2023/01/11 12:27:47;;;;;;;;;;;9.70;99.90;;;;;;5077839;28;919;-74
2023/01/11 12:30:12;;;;;;;;;;;9.60;99.90;;;;;;5077237;28;1056;-74
2023/01/11 12:32:46;;;;;;;;;;;9.50;99.90;;;;;;5077887;28;1920;-74
2023/01/11 12:35:28;;;;;;;;;;;9.40;99.90;;;;;;5077625;28;2581;-74
2023/01/11 12:38:01;;;;;;;;;;;9.40;99.90;;;;;;5077939;28;1078;-74
2023/01/11 12:40:34;;;;;;;;;;;9.30;99.90;;;;;;5079230;28;1208;-75
2023/01/11 12:43:19;;;;;;;;;;;9.40;99.90;;;;;;5078164;28;950;-74
2023/01/11 12:46:00;;;;;;;;;;;9.40;99.90;;;;;;5078019;28;1017;-75
2023/01/11 12:48:31;;;;;;;;;;;9.40;99.90;;;;;;5078165;28;1161;-74
2023/01/11 12:51:01;;;;;;;;;;;9.70;99.90;;;;;;5077461;28;1031;-74
2023/01/11 12:53:35;;;;;;;;;;;9.70;99.90;;;;;;5077533;28;1910;-74
2023/01/11 12:56:25;;;;;;;;;;;9.70;99.90;;;;;;5076931;28;1326;-75
2023/01/11 12:59:03;;;;;;;;;;;9.60;99.90;;;;;;5077016;28;1009;-75
2023/01/11 13:01:35;;;;;;;;;;;9.60;99.90;;;;;;5081970;28;985;-75
2023/01/11 13:04:04;;;;;;;;;;;9.40;99.90;;;;;;5082504;28;1301;-74
2023/01/11 13:06:38;;;;;;;;;;;9.50;99.90;;;;;;5080258;28;1021;-74
2023/01/11 13:09:10;;;;;;;;;;;9.60;99.90;;;;;;5064347;28;1128;-74
2023/01/11 13:11:44;;;;;;;;;;;9.60;99.90;;;;;;5082068;28;1128;-74
2023/01/11 13:14:22;;;;;;;;;;;9.60;99.90;;;;;;5081216;28;1913;-75
2023/01/11 13:16:53;;;;;;;;;;;9.80;99.90;;;;;;5063756;28;1219;-76
2023/01/11 13:19:25;;;;;;;;;;;10.70;99.90;;;;;;5081011;28;1025;-75
2023/01/11 13:21:53;;;;;;;;;;;11.10;99.90;;;;;;5082179;28;1394;-76
2023/01/11 13:24:25;;;;;;;;;;;10.60;99.90;;;;;;5080645;28;1181;-75
2023/01/11 13:26:52;;;;;;;;;;;10.10;99.90;;;;;;5080563;28;981;-74
2023/01/11 13:29:22;;;;;;;;;;;9.80;99.90;;;;;;5080705;28;1034;-75
2023/01/11 13:31:49;;;;;;;;;;;9.60;99.90;;;;;;5080943;28;1068;-74
2023/01/11 13:34:19;;;;;;;;;;;9.50;99.90;;;;;;5062882;28;1910;-74
2023/01/11 13:36:47;;;;;;;;;;;9.40;99.90;;;;;;5062528;28;1044;-74
2023/01/11 13:39:17;;;;;;;;;;;9.40;99.90;;;;;;5062813;28;1061;-75
2023/01/11 13:41:48;;;;;;;;;;;9.30;99.90;;;;;;5080183;28;1070;-74
2023/01/11 13:44:19;;;;;;;;;;;9.30;99.90;;;;;;5081013;28;1020;-74
2023/01/11 13:46:48;;;;;;;;;;;9.30;99.90;;;;;;5062215;28;1044;-74
2023/01/11 13:49:18;;;;;;;;;;;9.40;99.90;;;;;;5080400;28;954;-74
2023/01/11 13:51:50;;;;;;;;;;;9.40;99.90;;;;;;5080653;28;1115;-74
2023/01/11 13:54:20;;;;;;;;;;;9.30;99.90;;;;;;5079870;28;1967;-75
2023/01/11 13:56:54;;;;;;;;;;;9.50;99.90;;;;;;5080838;28;1244;-75
2023/01/11 13:59:24;;;;;;;;;;;9.60;99.90;;;;;;5079915;28;1017;-75
2023/01/11 14:01:54;;;;;;;;;;;9.70;99.90;;;;;;5079822;28;1006;-75
2023/01/11 14:04:26;;;;;;;;;;;9.70;99.90;;;;;;5063610;28;1298;-74
2023/01/11 14:06:53;;;;;;;;;;;9.60;99.90;;;;;;5080246;28;1022;-75
2023/01/11 14:09:24;;;;;;;;;;;9.50;99.90;;;;;;5080451;28;1139;-75
2023/01/11 14:12:06;;;;;;;;;;;9.40;99.90;;;;;;5078154;28;997;-75
2023/01/11 14:14:38;;;;;;;;;;;9.40;99.90;;;;;;5080156;28;1905;-75
2023/01/11 14:17:04;;;;;;;;;;;9.40;99.90;;;;;;5080528;28;1070;-74
2023/01/11 14:19:36;;;;;;;;;;;9.30;99.90;;;;;;5081410;28;1001;-75
2023/01/11 14:22:09;;;;;;;;;;;9.30;99.90;;;;;;5062761;28;1358;-74
2023/01/11 14:24:37;;;;;;;;;;;9.30;99.90;;;;;;5080065;28;1251;-75
2023/01/11 14:27:03;;;;;;;;;;;9.20;99.90;;;;;;5062313;28;1135;-75
2023/01/11 14:29:33;;;;;;;;;;;9.20;99.90;;;;;;5082846;28;1070;-75
2023/01/11 14:31:58;;;;;;;;;;;9.10;99.90;;;;;;5083881;28;1066;-75
2023/01/11 14:34:27;;;;;;;;;;;9.00;99.90;;;;;;5061746;28;2557;-75
2023/01/11 14:36:59;;;;;;;;;;;9.10;99.90;;;;;;5060487;28;1095;-75
2023/01/11 14:39:43;;;;;;;;;;;9.00;99.90;;;;;;5061904;28;1029;-75
2023/01/11 14:42:09;;;;;;;;;;;8.90;99.90;;;;;;5061707;28;1055;-75
2023/01/11 14:44:48;;;;;;;;;;;9.10;99.90;;;;;;5081092;28;1231;-74
2023/01/11 14:47:24;;;;;;;;;;;9.30;99.90;;;;;;5062025;28;1299;-75
2023/01/11 14:49:57;;;;;;;;;;;9.40;99.90;;;;;;5079556;28;974;-75
2023/01/11 14:52:25;;;;;;;;;;;9.50;99.90;;;;;;5062597;28;1976;-75
2023/01/11 14:54:53;;;;;;;;;;;9.40;99.90;;;;;;5081615;28;1069;-75
2023/01/11 14:57:34;;;;;;;;;;;9.20;99.90;;;;;;5080275;28;1247;-75
2023/01/11 15:00:00;;;;;;;;;;;9.10;99.90;;;;;;5063359;28;1279;-75
2023/01/11 15:02:27;;;;;;;;;;;8.90;99.90;;;;;;5082846;28;1113;-75
2023/01/11 15:04:53;;;;;;;;;;;8.80;99.90;;;;;;5081194;28;1387;-74
2023/01/11 15:07:23;;;;;;;;;;;8.70;99.90;;;;;;5080946;28;2686;-75
2023/01/11 15:09:52;;;;;;;;;;;8.60;99.90;;;;;;5082012;28;2707;-76
2023/01/11 15:12:17;;;;;;;;;;;8.50;99.90;;;;;;5081280;28;2787;-75
2023/01/11 15:14:46;;;;;;;;;;;8.40;99.90;;;;;;5083616;28;1081;-75
2023/01/11 15:20:05;;;;;;;;;;;8.40;99.90;;;;;;5077962;28;1294;-76